createdAt,value
2022-11-13T00:00:42.970Z,13.23
2022-11-13T00:03:29.660Z,12.80
2022-11-13T00:06:16.352Z,12.13
2022-11-13T00:09:01.290Z,11.90
2022-11-13T00:11:46.735Z,11.37
2022-11-13T00:14:32.089Z,11.60
2022-11-13T00:17:17.512Z,11.87
2022-11-13T00:20:02.793Z,11.33
2022-11-13T00:22:48.109Z,10.63
2022-11-13T00:25:35.492Z,11.33
2022-11-13T00:28:20.489Z,11.33
2022-11-13T00:31:07.246Z,10.70
2022-11-13T00:36:59.152Z,10.27
2022-11-13T00:39:44.401Z,10.47
2022-11-13T00:42:29.932Z,10.67
2022-11-13T00:45:15.289Z,10.27
2022-11-13T00:48:00.515Z,10.43
2022-11-13T00:50:45.989Z,10.57
2022-11-13T00:53:31.489Z,10.23
2022-11-13T00:56:16.900Z,10.30
2022-11-13T00:59:02.058Z,10.07
2022-11-13T01:01:47.518Z,9.67
2022-11-13T01:04:32.641Z,10.27
2022-11-13T01:07:17.943Z,10.03
2022-11-13T01:10:06.327Z,10.20
2022-11-13T01:12:51.605Z,10.97
2022-11-13T01:15:41.477Z,11.30
2022-11-13T01:18:26.959Z,12.37
2022-11-13T01:21:13.869Z,13.10
2022-11-13T01:23:59.048Z,13.63
2022-11-13T01:26:44.259Z,12.57
2022-11-13T01:29:29.294Z,12.97
2022-11-13T01:32:14.320Z,12.80
2022-11-13T01:34:59.437Z,13.07
2022-11-13T01:37:44.623Z,12.70
2022-11-13T01:40:29.636Z,13.10
2022-11-13T01:43:32.448Z,11.43
2022-11-13T01:46:22.258Z,12.87
2022-11-13T01:49:10.612Z,11.93
2022-11-13T01:52:01.223Z,11.83
2022-11-13T01:55:09.403Z,12.83
2022-11-13T01:57:54.344Z,12.10
2022-11-13T02:00:39.656Z,12.43
2022-11-13T02:03:24.815Z,12.10
2022-11-13T02:06:10.101Z,12.10
2022-11-13T02:08:55.304Z,12.37
2022-11-13T02:11:41.402Z,12.10
2022-11-13T02:14:28.299Z,12.50
2022-11-13T02:17:17.451Z,11.53
2022-11-13T02:20:05.025Z,11.53
2022-11-13T02:23:09.459Z,11.13
2022-11-13T02:25:54.893Z,11.67
2022-11-13T02:28:40.144Z,11.43
2022-11-13T02:31:25.569Z,11.50
2022-11-13T02:34:10.723Z,11.60
2022-11-13T02:36:55.920Z,12.23
2022-11-13T02:39:41.473Z,11.63
2022-11-13T02:42:26.644Z,11.93
2022-11-13T02:45:11.959Z,11.73
2022-11-13T02:48:00.112Z,11.97
2022-11-13T02:50:45.534Z,12.00
2022-11-13T02:53:30.845Z,13.10
2022-11-13T02:56:15.930Z,13.60
2022-11-13T02:59:01.171Z,14.73
2022-11-13T03:01:47.552Z,15.03
2022-11-13T03:05:04.890Z,15.00
2022-11-13T03:07:37.791Z,16.27
2022-11-13T03:10:23.228Z,16.77
2022-11-13T03:13:08.313Z,16.43
2022-11-13T03:15:53.680Z,16.87
2022-11-13T03:18:38.903Z,17.30
2022-11-13T03:21:24.205Z,18.47
2022-11-13T03:24:09.355Z,17.73
2022-11-13T03:26:54.464Z,18.57
2022-11-13T03:29:39.726Z,19.77
2022-11-13T03:32:24.833Z,19.27
2022-11-13T03:35:10.081Z,20.80
2022-11-13T03:37:55.200Z,20.40
2022-11-13T03:40:40.515Z,20.30
2022-11-13T03:43:25.679Z,19.47
2022-11-13T03:46:10.996Z,19.63
2022-11-13T03:48:56.257Z,18.57
2022-11-13T03:51:41.362Z,18.67
2022-11-13T03:54:26.558Z,19.00
2022-11-13T03:57:12.871Z,18.07
2022-11-13T03:59:58.015Z,18.57
2022-11-13T04:02:43.362Z,19.30
2022-11-13T04:05:28.659Z,19.30
2022-11-13T04:08:14.004Z,18.87
2022-11-13T04:11:12.080Z,18.20
2022-11-13T04:13:57.032Z,20.07
2022-11-13T04:16:42.228Z,19.27
2022-11-13T04:19:27.503Z,20.10
2022-11-13T04:22:12.987Z,19.83
2022-11-13T04:24:57.965Z,20.47
2022-11-13T04:27:43.324Z,19.30
2022-11-13T04:30:28.725Z,20.20
2022-11-13T04:33:14.056Z,19.23
2022-11-13T04:35:59.223Z,20.13
2022-11-13T04:38:44.507Z,21.37
2022-11-13T04:41:54.047Z,20.13
2022-11-13T04:44:40.793Z,22.53
2022-11-13T04:47:26.093Z,21.47
2022-11-13T04:50:11.698Z,21.23
2022-11-13T04:52:56.752Z,20.63
2022-11-13T04:55:42.133Z,21.33
2022-11-13T04:58:27.738Z,21.10
2022-11-13T05:01:13.296Z,23.17
2022-11-13T05:03:58.614Z,22.03
2022-11-13T05:06:43.798Z,22.83
2022-11-13T05:09:29.121Z,21.83
2022-11-13T05:12:14.729Z,21.30
2022-11-13T05:14:59.734Z,22.53
2022-11-13T05:17:44.978Z,21.93
2022-11-13T05:20:30.164Z,22.17
2022-11-13T05:23:15.478Z,23.40
2022-11-13T05:26:11.922Z,22.73
2022-11-13T05:29:00.678Z,23.17
2022-11-13T05:31:45.643Z,23.00
2022-11-13T05:34:30.660Z,21.93
2022-11-13T05:37:16.163Z,23.43
2022-11-13T05:40:01.386Z,23.27
2022-11-13T05:42:46.659Z,22.50
2022-11-13T05:45:31.639Z,22.33
2022-11-13T05:48:16.993Z,24.03
2022-11-13T05:51:16.242Z,22.10
2022-11-13T05:54:01.633Z,22.43
2022-11-13T05:56:46.975Z,23.73
2022-11-13T05:59:32.122Z,23.83
2022-11-13T06:02:17.517Z,22.93
2022-11-13T06:05:02.768Z,22.37
2022-11-13T06:07:51.182Z,23.17
2022-11-13T06:10:36.507Z,22.13
2022-11-13T06:13:21.737Z,22.50
2022-11-13T06:16:19.194Z,23.67
2022-11-13T06:19:06.886Z,23.33
2022-11-13T06:21:52.116Z,23.87
2022-11-13T06:24:37.429Z,23.77
2022-11-13T06:27:22.679Z,24.90
2022-11-13T06:30:08.566Z,25.43
2022-11-13T06:32:54.253Z,25.73
2022-11-13T06:35:39.250Z,24.50
2022-11-13T06:38:24.545Z,24.20
2022-11-13T06:41:12.022Z,23.57
2022-11-13T06:44:02.381Z,23.50
2022-11-13T06:46:48.664Z,23.73
2022-11-13T06:49:33.973Z,23.80
2022-11-13T06:52:19.220Z,22.20
2022-11-13T06:55:04.887Z,22.67
2022-11-13T06:57:50.087Z,23.63
2022-11-13T07:00:37.124Z,23.77
2022-11-13T07:03:25.992Z,22.60
2022-11-13T07:06:14.046Z,22.17
2022-11-13T07:08:59.077Z,22.30
2022-11-13T07:11:44.411Z,22.73
2022-11-13T07:14:29.660Z,21.57
2022-11-13T07:17:15.115Z,23.47
2022-11-13T07:20:00.242Z,23.17
2022-11-13T07:22:45.431Z,23.20
2022-11-13T07:25:30.847Z,22.37
2022-11-13T07:28:16.352Z,23.53
2022-11-13T07:31:01.966Z,22.27
2022-11-13T07:33:48.793Z,23.60
2022-11-13T07:36:34.061Z,22.77
2022-11-13T07:39:19.440Z,23.23
2022-11-13T07:42:04.816Z,24.70
2022-11-13T07:44:54.860Z,24.03
2022-11-13T07:47:40.500Z,26.37
2022-11-13T07:50:27.704Z,30.07
2022-11-13T07:53:13.248Z,27.20
2022-11-13T07:56:01.124Z,33.13
2022-11-13T07:58:46.028Z,26.10
2022-11-13T08:01:31.422Z,26.57
2022-11-13T08:04:16.514Z,24.30
2022-11-13T08:07:01.947Z,22.50
2022-11-13T08:09:46.987Z,25.57
2022-11-13T08:12:32.189Z,23.70
2022-11-13T08:15:17.398Z,23.63
2022-11-13T08:18:03.937Z,22.27
2022-11-13T08:20:49.030Z,21.77
2022-11-13T08:23:34.214Z,22.10
2022-11-13T08:26:19.549Z,22.33
2022-11-13T08:29:04.825Z,22.87
2022-11-13T08:31:50.194Z,24.27
2022-11-13T08:34:37.279Z,22.90
2022-11-13T08:37:23.337Z,22.90
2022-11-13T08:40:09.401Z,24.50
2022-11-13T08:43:01.900Z,27.07
2022-11-13T08:45:47.477Z,28.27
2022-11-13T08:48:33.035Z,26.70
2022-11-13T08:51:18.420Z,24.97
2022-11-13T08:54:03.801Z,23.93
2022-11-13T08:56:54.658Z,24.07
2022-11-13T08:59:41.179Z,25.17
2022-11-13T09:02:27.152Z,25.27
2022-11-13T09:05:12.695Z,25.60
2022-11-13T09:07:59.593Z,31.40
2022-11-13T09:10:44.753Z,24.40
2022-11-13T09:13:30.985Z,24.33
2022-11-13T09:16:16.150Z,24.77
2022-11-13T09:19:01.402Z,24.13
2022-11-13T09:21:47.158Z,30.17
2022-11-13T09:24:32.517Z,29.23
2022-11-13T09:27:18.437Z,31.77
2022-11-13T09:30:03.712Z,26.37
2022-11-13T09:32:48.733Z,25.00
2022-11-13T09:35:34.624Z,25.60
2022-11-13T09:38:19.884Z,26.63
2022-11-13T09:41:09.967Z,26.73
2022-11-13T09:44:00.050Z,25.27
2022-11-13T09:47:19.993Z,21.67
2022-11-13T09:50:11.117Z,21.27
2022-11-13T09:52:56.893Z,19.80
2022-11-13T09:55:50.509Z,19.70
2022-11-13T09:59:02.266Z,19.10
2022-11-13T10:02:07.517Z,18.03
2022-11-13T10:05:21.702Z,19.97
2022-11-13T10:08:14.429Z,41.03
2022-11-13T10:11:14.897Z,71.80
2022-11-13T10:14:03.835Z,29.37
2022-11-13T10:16:57.725Z,17.20
2022-11-13T10:20:00.513Z,16.13
2022-11-13T10:22:56.186Z,15.43
2022-11-13T10:25:42.746Z,15.00
2022-11-13T10:28:49.532Z,14.80
2022-11-13T10:31:47.980Z,14.83
2022-11-13T10:34:33.475Z,13.27
2022-11-13T10:37:45.357Z,12.63
2022-11-13T10:40:32.982Z,11.30
2022-11-13T10:43:23.609Z,11.77
2022-11-13T10:46:20.777Z,10.97
2022-11-13T10:49:20.410Z,11.97
2022-11-13T10:52:18.282Z,14.00
2022-11-13T10:55:16.986Z,14.73
2022-11-13T10:58:05.032Z,13.23
2022-11-13T11:00:50.551Z,12.63
2022-11-13T11:03:35.825Z,12.10
2022-11-13T11:06:50.422Z,11.70
2022-11-13T11:09:38.425Z,12.13
2022-11-13T11:12:30.645Z,13.00
2022-11-13T11:15:22.486Z,13.50
2022-11-13T11:18:18.084Z,12.20
2022-11-13T11:21:08.394Z,15.00
2022-11-13T11:24:07.432Z,17.90
2022-11-13T11:27:03.907Z,9.77
2022-11-13T11:29:53.105Z,9.40
2022-11-13T11:32:55.923Z,10.57
2022-11-13T11:35:45.658Z,11.93
2022-11-13T11:38:40.701Z,11.10
2022-11-13T11:41:46.936Z,12.70
2022-11-13T11:45:01.941Z,12.97
2022-11-13T11:47:47.757Z,12.23
2022-11-13T11:50:46.395Z,12.27
2022-11-13T11:53:45.849Z,11.27
2022-11-13T11:56:40.464Z,11.07
2022-11-13T11:59:39.417Z,10.97
2022-11-13T12:02:41.501Z,10.73
2022-11-13T12:05:47.952Z,11.03
2022-11-13T12:08:41.150Z,10.20
2022-11-13T12:11:36.040Z,11.73
2022-11-13T12:14:42.457Z,11.47
2022-11-13T12:17:36.328Z,12.33
2022-11-13T12:20:35.981Z,11.23
2022-11-13T12:23:30.767Z,11.67
2022-11-13T12:26:23.442Z,11.97
2022-11-13T12:29:17.348Z,12.27
2022-11-13T12:32:28.669Z,11.47
2022-11-13T12:35:23.493Z,11.33
2022-11-13T12:38:21.522Z,12.57
2022-11-13T12:41:16.999Z,12.67
2022-11-13T12:44:20.892Z,13.07
2022-11-13T12:47:07.601Z,12.83
2022-11-13T12:50:32.129Z,13.07
2022-11-13T12:53:27.001Z,12.77
2022-11-13T12:56:42.927Z,14.80
2022-11-13T12:59:36.092Z,14.63
2022-11-13T13:02:31.337Z,15.40
2022-11-13T13:05:33.736Z,15.40
2022-11-13T13:08:32.486Z,15.30
2022-11-13T13:11:32.751Z,15.30
2022-11-13T13:14:32.129Z,15.83
2022-11-13T13:17:22.996Z,16.10
2022-11-13T13:20:11.298Z,17.43
2022-11-13T13:22:58.416Z,17.10
2022-11-13T13:25:43.884Z,20.40
2022-11-13T13:28:31.651Z,18.93
2022-11-13T13:31:43.143Z,17.90
2022-11-13T13:34:46.920Z,18.33
2022-11-13T13:37:56.974Z,20.10
2022-11-13T13:41:00.025Z,18.73
2022-11-13T13:44:03.503Z,19.20
2022-11-13T13:46:49.196Z,19.77
2022-11-13T13:49:34.383Z,20.27
2022-11-13T13:52:30.145Z,21.70
2022-11-13T13:55:37.119Z,19.90
2022-11-13T13:58:36.466Z,19.27
2022-11-13T14:01:32.094Z,19.63
2022-11-13T14:04:22.186Z,19.93
2022-11-13T14:07:28.869Z,21.07
2022-11-13T14:10:20.436Z,25.40
2022-11-13T14:13:05.615Z,22.33
2022-11-13T14:16:01.427Z,22.73
2022-11-13T14:18:47.175Z,22.97
2022-11-13T14:21:32.908Z,23.00
2022-11-13T14:24:51.587Z,22.63
2022-11-13T14:27:37.588Z,22.63
2022-11-13T14:30:28.076Z,23.93
2022-11-13T14:33:20.722Z,23.07
2022-11-13T14:36:06.263Z,23.60
2022-11-13T14:38:52.341Z,23.23
2022-11-13T14:41:50.944Z,23.13
2022-11-13T14:44:36.320Z,22.03
2022-11-13T14:47:24.423Z,21.80
2022-11-13T14:50:21.647Z,29.20
2022-11-13T14:53:09.701Z,23.33
2022-11-13T14:55:56.863Z,25.53
2022-11-13T14:58:47.286Z,25.93
2022-11-13T15:01:32.963Z,24.07
2022-11-13T15:04:18.242Z,24.77
2022-11-13T15:07:19.479Z,25.43
2022-11-13T15:10:04.918Z,24.97
2022-11-13T15:12:50.050Z,25.83
2022-11-13T15:15:35.520Z,26.20
2022-11-13T15:18:20.816Z,27.10
2022-11-13T15:21:06.722Z,26.47
2022-11-13T15:23:51.837Z,27.93
2022-11-13T15:26:37.555Z,26.03
2022-11-13T15:29:22.503Z,25.40
2022-11-13T15:32:12.341Z,25.60
2022-11-13T15:34:57.649Z,25.90
2022-11-13T15:37:43.273Z,26.63
2022-11-13T15:40:28.253Z,26.00
2022-11-13T15:43:19.026Z,27.67
2022-11-13T15:46:04.244Z,28.53
2022-11-13T15:48:49.883Z,27.80
2022-11-13T15:51:41.579Z,26.80
2022-11-13T15:54:29.717Z,27.30
2022-11-13T15:57:26.157Z,27.40
2022-11-13T16:00:16.484Z,28.67
2022-11-13T16:03:04.389Z,27.53
2022-11-13T16:05:50.793Z,30.50
2022-11-13T16:08:35.977Z,29.57
2022-11-13T16:11:21.301Z,29.37
2022-11-13T16:14:06.520Z,29.13
2022-11-13T16:16:51.945Z,29.50
2022-11-13T16:19:37.873Z,29.30
2022-11-13T16:22:27.039Z,41.63
2022-11-13T16:25:15.305Z,37.83
2022-11-13T16:28:00.939Z,31.57
2022-11-13T16:30:47.597Z,31.37
2022-11-13T16:33:34.284Z,34.83
2022-11-13T16:36:24.176Z,38.37
2022-11-13T16:39:15.210Z,36.37
2022-11-13T16:42:00.590Z,35.43
2022-11-13T16:44:46.243Z,33.07
2022-11-13T16:47:32.900Z,33.27
2022-11-13T16:50:24.616Z,34.00
2022-11-13T16:53:10.928Z,33.17
2022-11-13T16:55:57.715Z,34.40
2022-11-13T16:58:47.191Z,34.93
2022-11-13T17:01:32.715Z,34.73
2022-11-13T17:04:18.513Z,33.50
2022-11-13T17:07:03.893Z,35.07
2022-11-13T17:09:58.947Z,38.67
2022-11-13T17:12:55.139Z,35.63
2022-11-13T17:15:41.286Z,37.07
2022-11-13T17:18:27.105Z,36.10
2022-11-13T17:21:13.110Z,37.17
2022-11-13T17:24:02.660Z,39.00
2022-11-13T17:26:48.110Z,36.93
2022-11-13T17:29:34.169Z,38.43
2022-11-13T17:32:19.612Z,37.47
2022-11-13T17:35:06.113Z,36.67
2022-11-13T17:37:52.214Z,39.43
2022-11-13T17:40:37.901Z,37.33
2022-11-13T17:43:23.595Z,36.07
2022-11-13T17:46:11.447Z,37.37
2022-11-13T17:48:57.149Z,38.13
2022-11-13T17:51:42.566Z,39.10
2022-11-13T17:54:29.302Z,40.93
2022-11-13T17:57:14.746Z,38.40
2022-11-13T18:00:00.061Z,36.70
2022-11-13T18:02:46.540Z,36.10
2022-11-13T18:05:31.860Z,37.73
2022-11-13T18:08:17.237Z,38.80
2022-11-13T18:11:08.012Z,36.97
2022-11-13T18:13:53.586Z,37.37
2022-11-13T18:16:38.842Z,39.10
2022-11-13T18:19:24.252Z,37.73
2022-11-13T18:22:09.615Z,39.20
2022-11-13T18:24:55.180Z,39.47
2022-11-13T18:27:41.649Z,36.93
2022-11-13T18:30:27.380Z,35.40
2022-11-13T18:33:12.482Z,37.87
2022-11-13T18:35:58.167Z,37.23
2022-11-13T18:38:43.518Z,35.80
2022-11-13T18:41:29.412Z,35.87
2022-11-13T18:44:14.909Z,35.83
2022-11-13T18:47:00.153Z,35.67
2022-11-13T18:49:45.408Z,35.23
2022-11-13T18:52:32.775Z,38.20
2022-11-13T18:55:18.212Z,39.27
2022-11-13T18:58:03.586Z,37.13
2022-11-13T19:00:49.046Z,36.33
2022-11-13T19:03:34.534Z,35.80
2022-11-13T19:06:21.265Z,38.20
2022-11-13T19:09:09.896Z,35.30
2022-11-13T19:11:54.860Z,34.33
2022-11-13T19:14:40.231Z,36.27
2022-11-13T19:17:25.513Z,36.50
2022-11-13T19:20:11.154Z,38.00
2022-11-13T19:22:56.343Z,36.53
2022-11-13T19:25:42.324Z,34.53
2022-11-13T19:28:28.478Z,36.07
2022-11-13T19:31:16.073Z,36.90
2022-11-13T19:34:03.441Z,36.27
2022-11-13T19:36:51.407Z,39.80
2022-11-13T19:39:37.448Z,35.67
2022-11-13T19:42:22.493Z,38.60
2022-11-13T19:45:08.437Z,38.47
2022-11-13T19:47:53.685Z,38.10
2022-11-13T19:50:39.123Z,55.03
2022-11-13T19:53:24.376Z,57.33
2022-11-13T19:56:09.668Z,55.20
2022-11-13T19:58:55.574Z,43.83
2022-11-13T20:01:42.082Z,38.13
2022-11-13T20:04:27.858Z,39.77
2022-11-13T20:07:13.178Z,45.10
2022-11-13T20:09:58.402Z,43.40
2022-11-13T20:12:43.680Z,42.83
2022-11-13T20:15:29.018Z,35.87
2022-11-13T20:18:14.495Z,37.93
2022-11-13T20:21:00.010Z,34.80
2022-11-13T20:23:45.570Z,34.63
2022-11-13T20:26:30.667Z,32.97
2022-11-13T20:29:16.160Z,32.63
2022-11-13T20:32:01.860Z,31.77
2022-11-13T20:34:46.805Z,31.70
2022-11-13T20:37:32.192Z,31.80
2022-11-13T20:40:17.816Z,32.47
2022-11-13T20:43:03.045Z,32.27
2022-11-13T20:45:48.437Z,32.10
2022-11-13T20:48:34.412Z,32.13
2022-11-13T20:51:21.983Z,32.23
2022-11-13T20:54:07.372Z,31.87
2022-11-13T20:56:52.478Z,31.23
2022-11-13T20:59:37.909Z,31.10
2022-11-13T21:02:23.475Z,31.93
2022-11-13T21:05:08.787Z,32.73
2022-11-13T21:07:53.991Z,31.80
2022-11-13T21:10:39.338Z,32.20
2022-11-13T21:13:24.656Z,31.03
2022-11-13T21:16:10.001Z,31.37
2022-11-13T21:18:59.605Z,31.37
2022-11-13T21:21:44.833Z,30.83
2022-11-13T21:24:29.929Z,29.83
2022-11-13T21:27:15.297Z,30.20
2022-11-13T21:30:00.552Z,31.73
2022-11-13T21:32:45.712Z,31.90
2022-11-13T21:35:31.126Z,31.60
2022-11-13T21:38:16.490Z,30.83
2022-11-13T21:41:21.556Z,31.93
2022-11-13T21:44:08.562Z,30.83
2022-11-13T21:46:54.121Z,31.23
2022-11-13T21:49:39.472Z,32.40
2022-11-13T21:52:24.768Z,30.90
2022-11-13T21:55:10.153Z,30.60
2022-11-13T21:57:55.875Z,30.73
2022-11-13T22:00:40.698Z,30.80
2022-11-13T22:03:27.277Z,30.43
2022-11-13T22:06:19.712Z,30.37
2022-11-13T22:09:12.973Z,30.63
2022-11-13T22:11:58.408Z,30.53
2022-11-13T22:14:43.635Z,28.97
2022-11-13T22:17:28.899Z,29.63
2022-11-13T22:20:14.881Z,31.07
2022-11-13T22:23:00.512Z,29.83
2022-11-13T22:25:45.838Z,29.10
2022-11-13T22:28:33.312Z,31.73
2022-11-13T22:31:29.804Z,30.60
2022-11-13T22:34:15.091Z,31.47
2022-11-13T22:37:00.466Z,29.73
2022-11-13T22:39:45.755Z,30.40
2022-11-13T22:42:31.178Z,30.03
2022-11-13T22:45:23.874Z,29.77
2022-11-13T22:48:10.712Z,29.13
2022-11-13T22:50:56.104Z,31.13
2022-11-13T22:53:42.964Z,32.47
2022-11-13T22:56:31.386Z,32.70
2022-11-13T22:59:16.757Z,31.87
2022-11-13T23:02:01.989Z,32.60
2022-11-13T23:04:47.257Z,32.73
2022-11-13T23:07:32.567Z,34.30
2022-11-13T23:10:18.074Z,35.23
2022-11-13T23:13:03.393Z,34.50
2022-11-13T23:15:48.803Z,35.97
2022-11-13T23:18:34.013Z,34.17
2022-11-13T23:21:19.746Z,34.43
2022-11-13T23:24:04.957Z,33.50
2022-11-13T23:26:49.969Z,33.50
2022-11-13T23:29:35.422Z,34.63
2022-11-13T23:32:20.635Z,34.83
2022-11-13T23:35:06.561Z,32.97
2022-11-13T23:37:51.730Z,34.20
2022-11-13T23:40:37.130Z,34.10
2022-11-13T23:43:23.603Z,33.30
2022-11-13T23:46:14.734Z,33.70
2022-11-13T23:49:00.147Z,32.63
2022-11-13T23:51:45.517Z,34.43
2022-11-13T23:54:30.692Z,32.97
2022-11-13T23:57:16.308Z,35.17
